createdAt,value
2023-03-08T00:01:40.868Z,2.05
2023-03-08T00:04:11.876Z,2.05
2023-03-08T00:06:42.377Z,1.92
2023-03-08T00:09:12.149Z,2.05
2023-03-08T00:11:41.248Z,2.40
2023-03-08T00:14:10.327Z,1.75
2023-03-08T00:16:39.285Z,2.55
2023-03-08T00:19:08.420Z,2.35
2023-03-08T00:21:37.502Z,2.47
2023-03-08T00:24:08.166Z,2.20
2023-03-08T00:26:37.085Z,3.13
2023-03-08T00:29:06.648Z,2.28
2023-03-08T00:31:35.722Z,2.42
2023-03-08T00:34:04.976Z,2.45
2023-03-08T00:36:34.095Z,2.85
2023-03-08T00:39:03.215Z,3.28
2023-03-08T00:41:34.282Z,2.45
2023-03-08T00:44:03.492Z,2.60
2023-03-08T00:46:32.553Z,2.80
2023-03-08T00:49:01.839Z,2.50
2023-03-08T00:51:33.797Z,2.70
2023-03-08T00:54:02.996Z,3.60
2023-03-08T00:56:33.305Z,3.05
2023-03-08T00:59:02.282Z,2.72
2023-03-08T01:01:31.489Z,3.65
2023-03-08T01:04:00.570Z,3.83
2023-03-08T01:06:29.535Z,2.97
2023-03-08T01:08:58.501Z,4.28
2023-03-08T01:11:28.703Z,3.53
2023-03-08T01:13:59.296Z,4.18
2023-03-08T01:16:30.779Z,3.78
2023-03-08T01:19:01.855Z,4.20
2023-03-08T01:21:31.991Z,3.50
2023-03-08T01:24:01.426Z,3.47
2023-03-08T01:26:30.822Z,3.53
2023-03-08T01:29:01.303Z,3.83
2023-03-08T01:31:31.767Z,3.85
2023-03-08T01:34:02.400Z,3.95
2023-03-08T01:36:31.682Z,3.15
2023-03-08T01:39:02.775Z,2.90
2023-03-08T01:41:33.474Z,4.15
2023-03-08T01:44:05.109Z,3.28
2023-03-08T01:46:34.901Z,4.40
2023-03-08T01:49:15.518Z,3.60
2023-03-08T01:51:48.251Z,2.92
2023-03-08T01:54:20.376Z,3.58
2023-03-08T01:56:52.500Z,4.18
2023-03-08T01:59:24.859Z,4.55
2023-03-08T02:02:00.187Z,4.05
2023-03-08T02:04:30.260Z,3.80
2023-03-08T02:07:00.531Z,4.05
2023-03-08T02:09:30.127Z,4.35
2023-03-08T02:12:05.698Z,5.32
2023-03-08T02:14:36.240Z,5.13
2023-03-08T02:17:05.421Z,4.47
2023-03-08T02:19:42.660Z,5.47
2023-03-08T02:22:13.512Z,4.10
2023-03-08T02:24:44.261Z,6.47
2023-03-08T02:27:18.257Z,3.50
2023-03-08T02:29:47.304Z,5.28
2023-03-08T02:32:17.986Z,5.10
2023-03-08T02:34:47.140Z,5.53
2023-03-08T02:37:16.117Z,6.07
2023-03-08T02:39:46.488Z,5.22
2023-03-08T02:42:15.383Z,5.15
2023-03-08T02:44:45.178Z,5.68
2023-03-08T02:47:14.241Z,4.85
2023-03-08T02:49:43.436Z,6.13
2023-03-08T02:52:12.567Z,5.60
2023-03-08T02:54:41.677Z,8.43
2023-03-08T02:57:12.580Z,7.20
2023-03-08T02:59:41.957Z,7.38
2023-03-08T03:02:11.228Z,6.55
2023-03-08T03:04:40.441Z,7.82
2023-03-08T03:07:10.039Z,7.60
2023-03-08T03:09:40.024Z,8.57
2023-03-08T03:12:09.691Z,7.85
2023-03-08T03:14:43.523Z,9.00
2023-03-08T03:17:12.740Z,7.53
2023-03-08T03:19:41.947Z,7.45
2023-03-08T03:22:11.154Z,8.30
2023-03-08T03:24:40.389Z,8.20
2023-03-08T03:27:10.041Z,8.57
2023-03-08T03:29:42.707Z,10.40
2023-03-08T03:32:16.376Z,9.90
2023-03-08T03:34:45.607Z,8.27
2023-03-08T03:37:15.068Z,9.50
2023-03-08T03:39:44.312Z,8.02
2023-03-08T03:42:16.898Z,8.70
2023-03-08T03:44:55.251Z,7.18
2023-03-08T03:47:24.840Z,7.18
2023-03-08T03:49:58.774Z,9.40
2023-03-08T03:52:31.761Z,8.60
2023-03-08T03:55:05.462Z,8.60
2023-03-08T03:57:34.746Z,8.07
2023-03-08T04:00:07.313Z,8.10
2023-03-08T04:02:43.192Z,8.48
2023-03-08T04:05:15.480Z,8.45
2023-03-08T04:07:47.722Z,8.80
2023-03-08T04:10:17.618Z,8.80
2023-03-08T04:12:50.278Z,6.15
2023-03-08T04:15:22.195Z,7.43
2023-03-08T04:17:53.543Z,8.40
2023-03-08T04:20:25.921Z,8.20
2023-03-08T04:22:58.434Z,8.60
2023-03-08T04:25:35.524Z,9.43
2023-03-08T04:28:06.235Z,8.43
2023-03-08T04:30:37.262Z,7.85
2023-03-08T04:33:08.223Z,9.48
2023-03-08T04:35:45.989Z,8.43
2023-03-08T04:38:20.298Z,9.00
2023-03-08T04:41:05.698Z,9.07
2023-03-08T04:43:47.696Z,7.70
2023-03-08T04:46:20.599Z,7.45
2023-03-08T04:48:52.918Z,9.52
2023-03-08T04:51:24.313Z,8.45
2023-03-08T04:53:54.501Z,8.35
2023-03-08T04:56:23.900Z,6.90
2023-03-08T04:58:54.349Z,7.30
2023-03-08T05:01:26.642Z,8.30
2023-03-08T05:03:56.869Z,8.10
2023-03-08T05:06:33.925Z,9.57
2023-03-08T05:09:03.151Z,10.30
2023-03-08T05:11:32.682Z,9.45
2023-03-08T05:14:02.346Z,9.05
2023-03-08T05:16:33.100Z,10.02
2023-03-08T05:19:02.321Z,10.18
2023-03-08T05:21:37.732Z,9.00
2023-03-08T05:24:07.551Z,9.90
2023-03-08T05:26:39.931Z,9.63
2023-03-08T05:29:10.663Z,9.18
2023-03-08T05:31:44.967Z,10.60
2023-03-08T05:34:15.262Z,9.68
2023-03-08T05:36:48.313Z,9.30
2023-03-08T05:39:17.652Z,9.20
2023-03-08T05:41:57.246Z,7.65
2023-03-08T05:44:32.072Z,7.95
2023-03-08T05:47:03.565Z,9.70
2023-03-08T05:49:32.922Z,8.10
2023-03-08T05:52:02.265Z,8.55
2023-03-08T05:54:31.467Z,9.05
2023-03-08T05:57:05.125Z,8.57
2023-03-08T05:59:34.572Z,7.15
2023-03-08T06:02:07.342Z,7.85
2023-03-08T06:04:44.113Z,7.72
2023-03-08T06:07:14.984Z,8.23
2023-03-08T06:09:51.938Z,9.20
2023-03-08T06:12:21.395Z,8.65
2023-03-08T06:14:54.996Z,9.15
2023-03-08T06:17:28.788Z,7.47
2023-03-08T06:19:59.574Z,8.35
2023-03-08T06:22:29.484Z,7.93
2023-03-08T06:24:58.959Z,8.02
2023-03-08T06:27:33.676Z,8.15
2023-03-08T06:30:07.371Z,7.00
2023-03-08T06:32:38.058Z,7.65
2023-03-08T06:35:09.633Z,8.15
2023-03-08T06:37:44.541Z,6.68
2023-03-08T06:40:14.634Z,8.30
2023-03-08T06:42:44.437Z,6.30
2023-03-08T06:45:16.709Z,8.52
2023-03-08T06:47:47.315Z,7.25
2023-03-08T06:50:16.695Z,7.97
2023-03-08T06:52:48.214Z,6.40
2023-03-08T06:55:23.030Z,7.82
2023-03-08T06:57:52.446Z,7.93
2023-03-08T07:00:22.655Z,7.63
2023-03-08T07:02:53.844Z,8.38
2023-03-08T07:05:23.006Z,8.35
2023-03-08T07:07:52.266Z,7.30
2023-03-08T07:10:23.159Z,12.32
2023-03-08T07:12:52.857Z,8.35
2023-03-08T07:15:24.181Z,8.57
2023-03-08T07:17:57.164Z,7.15
2023-03-08T07:20:29.015Z,7.28
2023-03-08T07:23:02.284Z,7.30
2023-03-08T07:25:31.596Z,6.80
2023-03-08T07:28:01.155Z,7.35
2023-03-08T07:30:56.935Z,7.18
2023-03-08T07:33:27.517Z,7.97
2023-03-08T07:35:56.724Z,8.95
2023-03-08T07:38:25.919Z,7.93
2023-03-08T07:40:56.950Z,7.13
2023-03-08T07:43:26.415Z,7.43
2023-03-08T07:46:06.940Z,7.25
2023-03-08T07:48:37.632Z,9.07
2023-03-08T07:51:09.740Z,7.40
2023-03-08T07:53:39.610Z,8.20
2023-03-08T07:56:09.816Z,8.68
2023-03-08T07:58:39.617Z,7.30
2023-03-08T08:01:37.163Z,7.35
2023-03-08T08:04:09.194Z,6.10
2023-03-08T08:06:38.444Z,7.78
2023-03-08T08:09:08.205Z,7.07
2023-03-08T08:11:37.790Z,7.25
2023-03-08T08:14:07.432Z,6.55
2023-03-08T08:16:36.984Z,7.40
2023-03-08T08:19:08.741Z,7.22
2023-03-08T08:21:38.013Z,8.15
2023-03-08T08:24:07.960Z,7.85
2023-03-08T08:26:37.157Z,7.03
2023-03-08T08:29:06.753Z,7.55
2023-03-08T08:31:36.204Z,6.78
2023-03-08T08:34:06.747Z,5.65
2023-03-08T08:36:35.879Z,6.15
2023-03-08T08:39:05.333Z,6.35
2023-03-08T08:41:34.502Z,6.85
2023-03-08T08:44:03.710Z,6.78
2023-03-08T08:46:34.974Z,6.35
2023-03-08T08:49:05.987Z,6.65
2023-03-08T08:51:36.499Z,6.55
2023-03-08T08:54:05.961Z,6.07
2023-03-08T08:56:35.061Z,6.53
2023-03-08T08:59:05.434Z,7.82
2023-03-08T09:01:37.069Z,6.70
2023-03-08T09:04:06.763Z,6.90
2023-03-08T09:06:37.888Z,6.25
2023-03-08T09:09:07.432Z,4.72
2023-03-08T09:11:48.547Z,6.72
2023-03-08T09:14:22.822Z,6.10
2023-03-08T09:16:52.764Z,5.03
2023-03-08T09:19:22.585Z,4.95
2023-03-08T09:21:53.439Z,4.88
2023-03-08T09:24:22.618Z,4.97
2023-03-08T09:26:51.685Z,4.43
2023-03-08T09:29:20.895Z,5.30
2023-03-08T09:31:50.156Z,4.35
2023-03-08T09:34:19.619Z,4.50
2023-03-08T09:36:48.784Z,4.28
2023-03-08T09:39:19.562Z,4.30
2023-03-08T09:41:55.705Z,3.60
2023-03-08T09:44:46.047Z,3.50
2023-03-08T09:47:21.747Z,3.55
2023-03-08T09:49:54.538Z,3.75
2023-03-08T09:52:30.082Z,2.90
2023-03-08T09:55:03.559Z,4.00
2023-03-08T09:57:47.316Z,3.55
2023-03-08T10:00:23.307Z,3.38
2023-03-08T10:03:04.968Z,3.72
2023-03-08T10:05:40.121Z,2.92
2023-03-08T10:08:14.811Z,3.63
2023-03-08T10:10:54.545Z,2.85
2023-03-08T10:13:35.291Z,3.30
2023-03-08T10:16:14.408Z,3.35
2023-03-08T10:18:51.671Z,2.50
2023-03-08T10:21:25.358Z,3.63
2023-03-08T10:24:00.933Z,3.13
2023-03-08T10:26:32.196Z,3.55
2023-03-08T10:29:01.481Z,3.03
2023-03-08T10:31:33.707Z,3.80
2023-03-08T10:34:12.903Z,4.38
2023-03-08T10:36:51.132Z,4.72
2023-03-08T10:39:21.250Z,3.10
2023-03-08T10:41:54.282Z,2.67
2023-03-08T10:44:37.109Z,3.38
2023-03-08T10:47:19.502Z,3.83
2023-03-08T10:49:48.776Z,3.67
2023-03-08T10:52:26.823Z,3.33
2023-03-08T10:55:03.447Z,3.67
2023-03-08T10:57:34.783Z,3.13
2023-03-08T11:00:13.743Z,3.53
2023-03-08T11:02:42.846Z,3.13
2023-03-08T11:05:22.283Z,2.95
2023-03-08T11:07:56.143Z,3.70
2023-03-08T11:10:28.317Z,2.95
2023-03-08T11:13:17.310Z,2.70
2023-03-08T11:15:52.243Z,3.72
2023-03-08T11:18:33.907Z,3.45
2023-03-08T11:21:11.359Z,2.58
2023-03-08T11:23:50.369Z,2.53
2023-03-08T11:26:29.288Z,3.88
2023-03-08T11:29:13.037Z,3.60
2023-03-08T11:31:50.494Z,3.40
2023-03-08T11:38:49.360Z,2.63
2023-03-08T11:41:26.304Z,3.08
2023-03-08T11:44:14.388Z,4.32
2023-03-08T11:47:00.577Z,4.30
2023-03-08T11:49:46.873Z,3.88
2023-03-08T11:52:28.758Z,4.57
2023-03-08T11:55:08.868Z,3.95
2023-03-08T11:57:42.238Z,4.90
2023-03-08T12:00:23.884Z,3.15
2023-03-08T12:02:55.313Z,3.13
2023-03-08T12:05:30.313Z,4.25
2023-03-08T12:08:12.572Z,3.55
2023-03-08T12:10:50.115Z,3.40
2023-03-08T12:13:24.321Z,3.50
2023-03-08T12:16:01.284Z,3.28
2023-03-08T12:18:37.990Z,2.95
2023-03-08T12:21:18.082Z,3.60
2023-03-08T12:24:03.801Z,2.30
2023-03-08T12:26:39.470Z,4.15
2023-03-08T12:29:15.230Z,3.28
2023-03-08T12:31:48.496Z,2.45
2023-03-08T12:34:28.931Z,3.05
2023-03-08T12:36:58.177Z,3.42
2023-03-08T12:39:30.534Z,3.85
2023-03-08T12:42:02.448Z,3.40
2023-03-08T12:44:33.007Z,2.80
2023-03-08T12:47:18.077Z,3.50
2023-03-08T12:49:51.262Z,3.58
2023-03-08T12:52:32.284Z,3.63
2023-03-08T12:55:03.559Z,4.45
2023-03-08T12:57:36.181Z,3.45
2023-03-08T13:00:25.307Z,3.60
2023-03-08T13:03:31.457Z,3.13
2023-03-08T13:06:00.892Z,3.33
2023-03-08T13:08:37.722Z,3.80
2023-03-08T13:11:12.120Z,3.20
2023-03-08T13:13:46.840Z,4.25
2023-03-08T13:16:32.081Z,3.67
2023-03-08T13:19:19.399Z,4.25
2023-03-08T13:21:57.963Z,5.35
2023-03-08T13:24:45.460Z,6.10
2023-03-08T13:27:32.726Z,4.55
2023-03-08T13:30:16.609Z,3.40
2023-03-08T13:32:46.529Z,4.65
2023-03-08T13:35:18.858Z,4.68
2023-03-08T13:37:56.331Z,3.33
2023-03-08T13:40:26.364Z,6.65
2023-03-08T13:42:57.493Z,4.80
2023-03-08T13:45:27.784Z,4.20
2023-03-08T13:47:59.299Z,5.28
2023-03-08T13:50:35.165Z,4.90
2023-03-08T13:53:09.042Z,4.35
2023-03-08T13:55:43.619Z,5.25
2023-03-08T13:58:23.289Z,3.75
2023-03-08T14:01:24.679Z,6.07
2023-03-08T14:03:55.670Z,4.70
2023-03-08T14:06:30.146Z,4.45
2023-03-08T14:09:02.295Z,5.07
2023-03-08T14:11:33.289Z,5.72
2023-03-08T14:14:07.363Z,5.97
2023-03-08T14:16:39.953Z,4.50
2023-03-08T14:19:13.722Z,5.32
2023-03-08T14:21:52.771Z,6.25
2023-03-08T14:24:24.983Z,5.75
2023-03-08T14:27:00.559Z,5.82
2023-03-08T14:29:31.868Z,4.47
2023-03-08T14:32:04.609Z,6.53
2023-03-08T14:34:36.530Z,6.05
2023-03-08T14:37:24.578Z,6.53
2023-03-08T14:39:56.285Z,6.43
2023-03-08T14:42:28.311Z,6.80
2023-03-08T14:45:01.017Z,5.78
2023-03-08T14:47:31.774Z,8.43
2023-03-08T14:50:04.284Z,7.78
2023-03-08T14:52:48.732Z,7.07
2023-03-08T14:55:26.070Z,6.75
2023-03-08T14:57:58.123Z,7.90
2023-03-08T15:00:31.843Z,7.32
2023-03-08T15:03:02.623Z,7.50
2023-03-08T15:05:32.308Z,6.82
2023-03-08T15:08:02.971Z,7.13
2023-03-08T15:10:34.811Z,7.10
2023-03-08T15:13:04.305Z,7.82
2023-03-08T15:15:33.507Z,6.63
2023-03-08T15:18:02.688Z,7.95
2023-03-08T15:20:32.350Z,6.70
2023-03-08T15:23:07.190Z,7.53
2023-03-08T15:25:38.317Z,7.55
2023-03-08T15:28:08.359Z,8.05
2023-03-08T15:30:37.427Z,8.57
2023-03-08T15:33:06.597Z,9.65
2023-03-08T15:35:35.969Z,8.93
2023-03-08T15:38:06.807Z,8.52
2023-03-08T15:40:36.955Z,8.20
2023-03-08T15:43:06.151Z,8.90
2023-03-08T15:45:35.461Z,8.73
2023-03-08T15:48:06.199Z,8.60
2023-03-08T15:50:36.587Z,9.93
2023-03-08T15:53:07.863Z,10.32
2023-03-08T15:55:38.810Z,10.15
2023-03-08T15:58:08.960Z,9.85
2023-03-08T16:00:39.775Z,10.75
2023-03-08T16:03:09.063Z,11.40
2023-03-08T16:05:40.236Z,8.55
2023-03-08T16:08:13.082Z,10.40
2023-03-08T16:10:47.764Z,9.70
2023-03-08T16:13:19.509Z,8.15
2023-03-08T16:15:50.159Z,8.30
2023-03-08T16:18:20.751Z,7.10
2023-03-08T16:20:51.140Z,8.35
2023-03-08T16:23:24.295Z,8.02
2023-03-08T16:26:13.933Z,7.05
2023-03-08T16:28:48.263Z,6.78
2023-03-08T16:31:22.277Z,6.50
2023-03-08T16:33:53.594Z,6.65
2023-03-08T16:36:24.433Z,9.43
2023-03-08T16:38:57.082Z,6.57
2023-03-08T16:41:30.282Z,7.63
2023-03-08T16:44:03.260Z,7.50
2023-03-08T16:46:35.015Z,7.75
2023-03-08T16:49:05.041Z,7.32
2023-03-08T16:51:38.102Z,7.78
2023-03-08T16:54:15.637Z,7.20
2023-03-08T16:56:46.529Z,8.95
2023-03-08T16:59:20.577Z,7.70
2023-03-08T17:01:50.839Z,8.80
2023-03-08T17:04:24.736Z,8.63
2023-03-08T17:06:58.621Z,7.88
2023-03-08T17:09:31.685Z,7.45
2023-03-08T17:12:02.979Z,7.35
2023-03-08T17:14:36.774Z,9.85
2023-03-08T17:17:07.366Z,6.78
2023-03-08T17:19:40.735Z,8.27
2023-03-08T17:22:13.877Z,5.78
2023-03-08T17:24:46.977Z,6.30
2023-03-08T17:27:19.337Z,6.75
2023-03-08T17:29:51.631Z,6.97
2023-03-08T17:32:23.333Z,6.30
2023-03-08T17:34:55.589Z,7.35
2023-03-08T17:37:54.808Z,6.57
2023-03-08T17:40:26.961Z,5.85
2023-03-08T17:43:00.397Z,6.47
2023-03-08T17:45:32.901Z,6.50
2023-03-08T17:48:05.230Z,6.07
2023-03-08T17:50:37.270Z,7.13
2023-03-08T17:53:12.150Z,6.90
2023-03-08T17:55:47.008Z,7.20
2023-03-08T17:58:20.476Z,7.10
2023-03-08T18:00:52.060Z,6.90
2023-03-08T18:03:27.454Z,6.47
2023-03-08T18:05:57.949Z,7.47
2023-03-08T18:08:42.163Z,7.13
2023-03-08T18:11:16.121Z,6.43
2023-03-08T18:13:47.639Z,7.05
2023-03-08T18:16:18.411Z,6.53
2023-03-08T18:19:39.045Z,6.93
2023-03-08T18:22:10.430Z,6.35
2023-03-08T18:24:42.209Z,6.22
2023-03-08T18:27:18.576Z,7.30
2023-03-08T18:29:50.956Z,5.38
2023-03-08T18:32:25.882Z,7.28
2023-03-08T18:34:56.367Z,7.28
2023-03-08T18:37:31.932Z,6.80
2023-03-08T18:40:10.364Z,8.52
2023-03-08T18:42:43.446Z,6.88
2023-03-08T18:45:15.658Z,8.25
2023-03-08T18:47:51.487Z,6.32
2023-03-08T18:50:24.466Z,7.43
2023-03-08T18:52:57.188Z,8.50
2023-03-08T18:55:27.954Z,7.25
2023-03-08T18:58:03.117Z,7.25
2023-03-08T19:00:35.078Z,9.82
2023-03-08T19:03:14.838Z,8.88
2023-03-08T19:05:48.366Z,8.23
2023-03-08T19:08:20.640Z,8.45
2023-03-08T19:10:52.050Z,8.45
2023-03-08T19:13:25.838Z,10.23
2023-03-08T19:15:56.135Z,8.88
2023-03-08T19:18:27.334Z,8.75
2023-03-08T19:20:57.726Z,9.98
2023-03-08T19:23:30.054Z,10.25
2023-03-08T19:26:23.890Z,9.98
2023-03-08T19:28:57.290Z,9.65
2023-03-08T19:31:31.712Z,9.20
2023-03-08T19:34:30.425Z,9.55
2023-03-08T19:37:12.664Z,9.77
2023-03-08T19:39:48.092Z,11.18
2023-03-08T19:42:20.781Z,11.18
2023-03-08T19:44:57.452Z,11.48
2023-03-08T19:51:57.539Z,8.98
2023-03-08T19:54:30.687Z,8.68
2023-03-08T19:57:03.708Z,8.18
2023-03-08T19:59:37.203Z,8.65
2023-03-08T20:02:14.478Z,8.75
2023-03-08T20:04:48.266Z,7.47
2023-03-08T20:07:27.647Z,9.00
2023-03-08T20:10:07.337Z,9.23
2023-03-08T20:12:53.415Z,7.53
2023-03-08T20:15:24.166Z,6.80
2023-03-08T20:18:00.730Z,5.88
2023-03-08T20:20:33.649Z,6.15
2023-03-08T20:23:06.629Z,8.18
2023-03-08T20:25:38.793Z,8.00
2023-03-08T20:28:10.637Z,6.13
2023-03-08T20:30:42.764Z,6.30
2023-03-08T20:33:15.712Z,8.55
2023-03-08T20:35:58.273Z,6.40
2023-03-08T20:38:30.338Z,5.47
2023-03-08T20:41:07.792Z,6.20
2023-03-08T20:43:39.707Z,6.70
2023-03-08T20:46:13.460Z,5.82
2023-03-08T20:48:49.130Z,7.18
2023-03-08T20:51:24.584Z,8.05
2023-03-08T20:54:02.013Z,7.40
2023-03-08T20:56:34.670Z,6.43
2023-03-08T20:59:10.740Z,7.20
2023-03-08T21:01:42.830Z,7.43
2023-03-08T21:04:16.133Z,6.97
2023-03-08T21:06:47.297Z,7.22
2023-03-08T21:09:23.040Z,7.57
2023-03-08T21:11:56.072Z,8.30
2023-03-08T21:14:29.591Z,7.50
2023-03-08T21:17:51.862Z,8.60
2023-03-08T21:20:27.128Z,8.30
2023-03-08T21:22:58.915Z,8.77
2023-03-08T21:25:30.773Z,9.82
2023-03-08T21:28:29.688Z,9.70
2023-03-08T21:31:01.832Z,7.80
2023-03-08T21:33:34.244Z,9.13
2023-03-08T21:36:18.396Z,7.47
2023-03-08T21:38:56.563Z,7.43
2023-03-08T21:42:25.137Z,7.22
2023-03-08T21:44:59.022Z,8.50
2023-03-08T21:48:01.280Z,8.30
2023-03-08T21:50:32.562Z,7.60
2023-03-08T21:53:05.918Z,9.38
2023-03-08T21:55:44.017Z,9.95
2023-03-08T21:58:16.575Z,9.43
2023-03-08T22:00:47.760Z,9.73
2023-03-08T22:03:19.779Z,9.15
2023-03-08T22:05:50.950Z,8.45
2023-03-08T22:08:25.844Z,8.00
2023-03-08T22:10:58.087Z,6.95
2023-03-08T22:13:30.619Z,8.05
2023-03-08T22:16:02.911Z,6.97
2023-03-08T22:18:36.332Z,8.13
2023-03-08T22:21:08.009Z,8.57
2023-03-08T22:23:44.222Z,9.73
2023-03-08T22:26:44.147Z,8.38
2023-03-08T22:29:44.596Z,6.90
2023-03-08T22:32:17.623Z,7.00
2023-03-08T22:34:48.563Z,7.38
2023-03-08T22:37:27.090Z,8.38
2023-03-08T22:40:02.439Z,8.93
2023-03-08T22:42:36.823Z,7.47
2023-03-08T22:45:08.454Z,7.95
2023-03-08T22:47:40.735Z,7.95
2023-03-08T22:50:13.416Z,9.15
2023-03-08T22:52:47.039Z,9.10
2023-03-08T22:55:22.063Z,7.53
2023-03-08T22:57:52.979Z,7.13
2023-03-08T23:00:26.203Z,10.13
2023-03-08T23:03:00.279Z,7.00
2023-03-08T23:05:31.770Z,8.52
2023-03-08T23:08:04.174Z,7.97
2023-03-08T23:10:43.555Z,8.30
2023-03-08T23:13:32.710Z,9.45
2023-03-08T23:16:12.248Z,6.72
2023-03-08T23:19:18.968Z,7.47
2023-03-08T23:21:50.892Z,8.63
2023-03-08T23:24:24.372Z,8.52
2023-03-08T23:27:02.416Z,9.07
2023-03-08T23:29:34.966Z,8.82
2023-03-08T23:32:06.421Z,7.70
2023-03-08T23:34:39.844Z,9.60
2023-03-08T23:37:11.897Z,9.90
2023-03-08T23:39:46.170Z,8.95
2023-03-08T23:42:20.961Z,9.85
2023-03-08T23:44:53.296Z,9.63
2023-03-08T23:47:24.576Z,10.55
2023-03-08T23:49:56.443Z,10.15
2023-03-08T23:52:27.821Z,12.02
2023-03-08T23:55:00.083Z,12.13
2023-03-08T23:57:35.520Z,12.38
